createdAt,value
2022-08-26T00:01:54.325Z,41.08
2022-08-26T00:04:23.651Z,40.87
2022-08-26T00:06:50.967Z,41.26
2022-08-26T00:09:18.028Z,41.17
2022-08-26T00:11:45.786Z,41.05
2022-08-26T00:14:13.708Z,42.07
2022-08-26T00:16:47.277Z,42.32
2022-08-26T00:19:20.723Z,42.24
2022-08-26T00:21:49.678Z,42.40
2022-08-26T00:24:19.158Z,42.82
2022-08-26T00:26:46.379Z,42.82
2022-08-26T00:29:13.608Z,42.96
2022-08-26T00:31:42.102Z,42.36
2022-08-26T00:34:11.268Z,42.42
2022-08-26T00:36:39.707Z,42.55
2022-08-26T00:39:08.449Z,42.93
2022-08-26T00:41:39.856Z,42.71
2022-08-26T00:44:11.127Z,42.84
2022-08-26T00:46:46.480Z,42.81
2022-08-26T00:49:19.844Z,42.23
2022-08-26T00:51:53.394Z,42.46
2022-08-26T00:54:26.771Z,42.70
2022-08-26T00:57:02.745Z,42.77
2022-08-26T00:59:32.989Z,42.82
2022-08-26T01:02:02.684Z,43.09
2022-08-26T01:04:33.470Z,43.13
2022-08-26T01:07:01.588Z,43.82
2022-08-26T01:09:29.899Z,43.20
2022-08-26T01:12:00.956Z,43.90
2022-08-26T01:14:32.657Z,43.78
2022-08-26T01:17:02.917Z,43.93
2022-08-26T01:19:38.064Z,44.31
2022-08-26T01:22:30.570Z,44.42
2022-08-26T01:25:00.638Z,44.37
2022-08-26T01:27:32.914Z,44.23
2022-08-26T01:30:02.630Z,44.41
2022-08-26T01:32:33.205Z,44.58
2022-08-26T01:35:00.844Z,44.44
2022-08-26T01:37:34.588Z,43.99
2022-08-26T01:40:01.786Z,44.57
2022-08-26T01:42:29.806Z,44.52
2022-08-26T01:45:19.514Z,44.24
2022-08-26T01:47:48.692Z,44.19
2022-08-26T01:50:27.880Z,44.51
2022-08-26T01:52:59.497Z,44.21
2022-08-26T01:55:33.081Z,44.27
2022-08-26T01:58:04.746Z,44.31
2022-08-26T02:00:33.576Z,44.24
2022-08-26T02:03:21.484Z,44.30
2022-08-26T02:05:54.133Z,43.95
2022-08-26T02:08:31.077Z,44.54
2022-08-26T02:10:58.187Z,45.11
2022-08-26T02:13:29.982Z,45.40
2022-08-26T02:15:58.103Z,45.89
2022-08-26T02:18:25.878Z,46.25
2022-08-26T02:20:54.400Z,46.21
2022-08-26T02:23:21.256Z,46.36
2022-08-26T02:26:03.843Z,46.40
2022-08-26T02:28:35.848Z,46.33
2022-08-26T02:31:03.295Z,46.73
2022-08-26T02:33:31.926Z,46.95
2022-08-26T02:35:58.825Z,47.17
2022-08-26T02:38:26.112Z,47.76
2022-08-26T02:40:52.934Z,48.36
2022-08-26T02:43:19.819Z,48.16
2022-08-26T02:46:00.056Z,48.43
2022-08-26T02:48:28.482Z,48.33
2022-08-26T02:50:55.315Z,47.99
2022-08-26T02:53:25.418Z,48.09
2022-08-26T02:55:52.748Z,47.74
2022-08-26T02:58:20.601Z,47.71
2022-08-26T03:00:52.769Z,47.60
2022-08-26T03:03:20.778Z,47.51
2022-08-26T03:05:51.276Z,47.49
2022-08-26T03:08:18.189Z,47.25
2022-08-26T03:10:46.478Z,47.75
2022-08-26T03:13:15.596Z,47.73
2022-08-26T03:15:42.500Z,47.82
2022-08-26T03:18:09.774Z,47.28
2022-08-26T03:20:37.100Z,47.41
2022-08-26T03:23:04.031Z,47.95
2022-08-26T03:25:31.263Z,48.08
2022-08-26T03:27:59.439Z,48.05
2022-08-26T03:30:45.120Z,47.77
2022-08-26T03:33:13.737Z,47.69
2022-08-26T03:35:43.467Z,47.98
2022-08-26T03:38:10.863Z,47.98
2022-08-26T03:40:38.750Z,47.74
2022-08-26T03:43:09.859Z,48.01
2022-08-26T03:45:37.651Z,48.03
2022-08-26T03:48:05.433Z,48.80
2022-08-26T03:50:34.263Z,48.73
2022-08-26T03:53:03.978Z,48.90
2022-08-26T03:55:32.757Z,49.31
2022-08-26T03:58:00.780Z,49.24
2022-08-26T04:00:28.132Z,49.67
2022-08-26T04:02:55.514Z,49.60
2022-08-26T04:05:23.344Z,49.69
2022-08-26T04:07:50.814Z,49.54
2022-08-26T04:10:20.235Z,49.43
2022-08-26T04:12:47.260Z,49.77
2022-08-26T04:15:16.128Z,49.58
2022-08-26T04:17:44.625Z,49.72
2022-08-26T04:20:16.259Z,49.25
2022-08-26T04:22:43.277Z,49.04
2022-08-26T04:25:10.884Z,48.85
2022-08-26T04:27:37.786Z,49.07
2022-08-26T04:30:07.589Z,49.36
2022-08-26T04:32:35.649Z,49.30
2022-08-26T04:35:04.577Z,49.55
2022-08-26T04:37:31.512Z,49.41
2022-08-26T04:39:59.570Z,49.29
2022-08-26T04:42:26.463Z,49.10
2022-08-26T04:44:53.305Z,49.42
2022-08-26T04:47:20.133Z,49.31
2022-08-26T04:49:46.969Z,49.23
2022-08-26T04:52:13.728Z,49.03
2022-08-26T04:54:41.988Z,48.82
2022-08-26T04:57:08.930Z,48.89
2022-08-26T04:59:39.100Z,48.95
2022-08-26T05:02:06.891Z,48.79
2022-08-26T05:04:34.079Z,49.18
2022-08-26T05:07:02.834Z,49.07
2022-08-26T05:09:30.471Z,49.33
2022-08-26T05:11:57.408Z,49.16
2022-08-26T05:14:24.367Z,49.29
2022-08-26T05:16:51.748Z,49.41
2022-08-26T05:19:18.927Z,49.01
2022-08-26T05:21:47.743Z,48.71
2022-08-26T05:24:14.689Z,48.57
2022-08-26T05:26:42.151Z,48.46
2022-08-26T05:29:11.963Z,48.73
2022-08-26T05:31:38.781Z,48.51
2022-08-26T05:34:05.947Z,48.36
2022-08-26T05:36:35.611Z,47.65
2022-08-26T05:39:05.680Z,47.63
2022-08-26T05:41:36.394Z,47.34
2022-08-26T05:44:07.069Z,47.31
2022-08-26T05:46:35.088Z,47.08
2022-08-26T05:49:02.697Z,45.99
2022-08-26T05:51:31.018Z,44.89
2022-08-26T05:53:58.503Z,43.71
2022-08-26T05:56:27.423Z,42.78
2022-08-26T05:58:56.299Z,41.78
2022-08-26T06:01:26.952Z,41.86
2022-08-26T06:03:57.494Z,42.12
2022-08-26T06:06:29.373Z,41.71
2022-08-26T06:08:59.407Z,41.11
2022-08-26T06:11:28.682Z,40.09
2022-08-26T06:14:03.091Z,38.95
2022-08-26T06:16:38.605Z,38.40
2022-08-26T06:19:10.998Z,37.35
2022-08-26T06:21:40.036Z,36.91
2022-08-26T06:24:28.485Z,36.01
2022-08-26T06:26:57.918Z,34.92
2022-08-26T06:29:28.106Z,33.42
2022-08-26T06:31:56.679Z,33.19
2022-08-26T06:34:26.634Z,32.08
2022-08-26T06:37:02.462Z,30.81
2022-08-26T06:39:30.739Z,29.74
2022-08-26T06:41:59.369Z,29.17
2022-08-26T06:44:26.764Z,27.96
2022-08-26T06:46:53.851Z,28.11
2022-08-26T06:49:25.825Z,28.39
2022-08-26T06:51:58.343Z,28.04
2022-08-26T06:54:26.631Z,27.78
2022-08-26T06:56:53.717Z,27.16
2022-08-26T06:59:21.829Z,26.65
2022-08-26T07:01:49.822Z,25.97
2022-08-26T07:04:20.107Z,26.29
2022-08-26T07:06:52.415Z,25.84
2022-08-26T07:09:26.962Z,25.70
2022-08-26T07:11:56.275Z,26.08
2022-08-26T07:14:24.900Z,25.56
2022-08-26T07:16:53.453Z,25.66
2022-08-26T07:19:29.861Z,25.17
2022-08-26T07:22:03.898Z,25.75
2022-08-26T07:24:35.742Z,24.82
2022-08-26T07:27:08.786Z,25.30
2022-08-26T07:29:37.450Z,25.84
2022-08-26T07:32:05.155Z,25.23
2022-08-26T07:34:33.337Z,24.78
2022-08-26T07:37:00.599Z,24.46
2022-08-26T07:39:28.361Z,23.76
2022-08-26T07:42:01.340Z,24.32
2022-08-26T07:44:29.530Z,23.62
2022-08-26T07:46:56.611Z,23.41
2022-08-26T07:49:26.947Z,21.94
2022-08-26T07:51:55.942Z,21.59
2022-08-26T07:54:27.015Z,21.13
2022-08-26T07:56:55.913Z,21.39
2022-08-26T07:59:23.357Z,21.70
2022-08-26T08:01:50.668Z,21.21
2022-08-26T08:04:21.877Z,20.93
2022-08-26T08:06:53.794Z,20.42
2022-08-26T08:09:22.424Z,20.16
2022-08-26T08:11:49.860Z,20.73
2022-08-26T08:14:18.514Z,21.13
2022-08-26T08:16:51.279Z,21.33
2022-08-26T08:19:23.110Z,21.66
2022-08-26T08:21:50.803Z,21.95
2022-08-26T08:24:18.069Z,22.87
2022-08-26T08:26:45.927Z,23.34
2022-08-26T08:29:13.210Z,24.14
2022-08-26T08:31:58.420Z,23.98
2022-08-26T08:34:28.223Z,22.89
2022-08-26T08:36:56.197Z,22.37
2022-08-26T08:39:24.292Z,22.20
2022-08-26T08:41:56.922Z,22.10
2022-08-26T08:47:00.865Z,23.03
2022-08-26T08:49:28.389Z,23.06
2022-08-26T08:52:05.277Z,24.00
2022-08-26T08:54:33.875Z,24.82
2022-08-26T08:57:13.582Z,25.07
2022-08-26T08:59:53.258Z,24.62
2022-08-26T09:02:44.064Z,24.65
2022-08-26T09:05:23.052Z,25.29
2022-08-26T09:08:01.970Z,25.84
2022-08-26T09:10:47.147Z,25.86
2022-08-26T09:13:25.386Z,26.72
2022-08-26T09:16:10.105Z,27.02
2022-08-26T09:19:19.149Z,27.70
2022-08-26T09:21:46.496Z,28.29
2022-08-26T09:24:20.214Z,28.55
2022-08-26T09:26:49.776Z,28.88
2022-08-26T09:29:26.217Z,28.82
2022-08-26T09:32:16.082Z,28.79
2022-08-26T09:35:07.418Z,28.66
2022-08-26T09:37:43.587Z,29.05
2022-08-26T09:40:27.070Z,28.66
2022-08-26T09:43:09.662Z,28.54
2022-08-26T09:45:38.795Z,27.86
2022-08-26T09:48:06.716Z,27.68
2022-08-26T09:50:40.961Z,26.93
2022-08-26T09:53:14.855Z,26.35
2022-08-26T09:55:47.783Z,25.85
2022-08-26T09:58:38.078Z,24.75
2022-08-26T10:01:14.866Z,23.97
2022-08-26T10:03:43.331Z,22.00
2022-08-26T10:06:16.265Z,21.63
2022-08-26T10:08:47.418Z,21.48
2022-08-26T10:11:31.056Z,20.30
2022-08-26T10:14:08.509Z,20.41
2022-08-26T10:16:48.301Z,20.63
2022-08-26T10:19:29.083Z,20.26
2022-08-26T10:22:13.849Z,19.72
2022-08-26T10:24:55.856Z,20.03
2022-08-26T10:27:36.585Z,20.35
2022-08-26T10:30:17.276Z,20.26
2022-08-26T10:32:53.891Z,20.31
2022-08-26T10:35:21.291Z,20.05
2022-08-26T10:37:54.106Z,20.28
2022-08-26T10:40:26.496Z,20.71
2022-08-26T10:43:10.905Z,20.43
2022-08-26T10:45:46.576Z,20.14
2022-08-26T10:48:21.277Z,21.21
2022-08-26T10:50:49.113Z,20.86
2022-08-26T10:53:37.834Z,20.69
2022-08-26T10:56:46.412Z,20.87
2022-08-26T10:59:22.139Z,20.77
2022-08-26T11:02:03.880Z,20.84
2022-08-26T11:04:42.374Z,20.51
2022-08-26T11:07:44.259Z,19.67
2022-08-26T11:10:17.278Z,19.62
2022-08-26T11:12:45.344Z,19.83
2022-08-26T11:15:24.519Z,19.41
2022-08-26T11:17:51.682Z,19.38
2022-08-26T11:20:47.112Z,19.16
2022-08-26T11:23:16.939Z,18.13
2022-08-26T11:25:55.944Z,17.94
2022-08-26T11:28:44.542Z,17.87
2022-08-26T11:31:33.211Z,17.76
2022-08-26T11:34:08.852Z,18.38
2022-08-26T11:36:46.655Z,18.27
2022-08-26T11:39:19.637Z,18.90
2022-08-26T11:41:52.883Z,19.24
2022-08-26T11:44:26.275Z,19.83
2022-08-26T11:47:03.117Z,19.32
2022-08-26T11:49:31.768Z,19.25
2022-08-26T11:52:09.457Z,20.24
2022-08-26T11:54:36.462Z,20.71
2022-08-26T11:57:11.774Z,21.20
2022-08-26T11:59:41.083Z,21.50
2022-08-26T12:02:17.894Z,22.14
2022-08-26T12:04:49.479Z,22.59
2022-08-26T12:07:24.127Z,22.90
2022-08-26T12:10:04.697Z,22.67
2022-08-26T12:12:42.438Z,22.70
2022-08-26T12:15:14.505Z,22.59
2022-08-26T12:17:43.264Z,22.84
2022-08-26T12:20:20.723Z,23.30
2022-08-26T12:22:48.127Z,23.69
2022-08-26T12:25:24.068Z,24.11
2022-08-26T12:27:53.655Z,24.04
2022-08-26T12:30:26.231Z,24.38
2022-08-26T12:33:21.922Z,24.65
2022-08-26T12:35:54.781Z,25.25
2022-08-26T12:38:26.720Z,25.91
2022-08-26T12:40:53.681Z,26.28
2022-08-26T12:43:38.477Z,26.79
2022-08-26T12:46:06.659Z,27.51
2022-08-26T12:48:36.435Z,27.72
2022-08-26T12:51:06.020Z,27.87
2022-08-26T12:53:35.141Z,28.07
2022-08-26T12:56:17.142Z,28.34
2022-08-26T12:58:44.164Z,28.68
2022-08-26T13:01:11.020Z,28.73
2022-08-26T13:03:45.432Z,29.02
2022-08-26T13:06:22.439Z,29.17
2022-08-26T13:09:00.669Z,29.65
2022-08-26T13:11:32.678Z,29.10
2022-08-26T13:14:01.037Z,29.71
2022-08-26T13:16:29.139Z,29.05
2022-08-26T13:19:01.482Z,28.95
2022-08-26T13:21:29.942Z,29.01
2022-08-26T13:24:33.307Z,29.22
2022-08-26T13:27:01.769Z,28.59
2022-08-26T13:29:28.709Z,28.87
2022-08-26T13:31:55.700Z,29.08
2022-08-26T13:34:23.397Z,29.42
2022-08-26T13:36:52.426Z,29.77
2022-08-26T13:39:20.224Z,29.21
2022-08-26T13:41:47.283Z,29.43
2022-08-26T13:44:14.097Z,29.17
2022-08-26T13:46:41.078Z,29.85
2022-08-26T13:49:08.112Z,29.76
2022-08-26T13:51:35.683Z,30.20
2022-08-26T13:54:02.485Z,30.60
2022-08-26T13:56:29.875Z,30.87
2022-08-26T13:58:58.010Z,30.54
2022-08-26T14:01:25.304Z,30.46
2022-08-26T14:03:52.721Z,30.81
2022-08-26T14:06:25.222Z,30.84
2022-08-26T14:08:52.104Z,31.31
2022-08-26T14:11:20.463Z,30.79
2022-08-26T14:13:47.185Z,31.26
2022-08-26T14:16:33.298Z,31.49
2022-08-26T14:19:01.426Z,31.40
2022-08-26T14:21:31.106Z,32.01
2022-08-26T14:24:00.952Z,31.83
2022-08-26T14:26:29.763Z,31.73
2022-08-26T14:28:58.632Z,31.95
2022-08-26T14:31:26.904Z,32.67
2022-08-26T14:33:57.027Z,32.40
2022-08-26T14:36:31.273Z,33.14
2022-08-26T14:39:05.595Z,33.17
2022-08-26T14:41:34.414Z,33.71
2022-08-26T14:44:08.151Z,34.04
2022-08-26T14:46:42.413Z,34.03
2022-08-26T14:49:10.738Z,34.32
2022-08-26T14:51:38.704Z,34.72
2022-08-26T14:54:14.603Z,35.08
2022-08-26T14:56:49.190Z,35.05
2022-08-26T14:59:22.481Z,34.98
2022-08-26T15:01:50.145Z,35.08
2022-08-26T15:04:17.003Z,35.07
2022-08-26T15:06:44.225Z,34.83
2022-08-26T15:09:11.342Z,35.05
2022-08-26T15:11:38.153Z,35.37
2022-08-26T15:14:05.468Z,35.32
2022-08-26T15:16:32.622Z,35.55
2022-08-26T15:19:00.755Z,36.03
2022-08-26T15:21:27.570Z,36.13
2022-08-26T15:23:54.718Z,36.44
2022-08-26T15:26:23.050Z,36.39
2022-08-26T15:28:50.097Z,36.60
2022-08-26T15:31:17.664Z,36.14
2022-08-26T15:33:45.636Z,35.93
2022-08-26T15:36:12.399Z,36.02
2022-08-26T15:38:42.423Z,35.91
2022-08-26T15:41:10.212Z,35.96
2022-08-26T15:43:38.254Z,36.51
2022-08-26T15:46:10.985Z,36.93
2022-08-26T15:48:38.459Z,37.46
2022-08-26T15:51:06.852Z,37.46
2022-08-26T15:53:35.126Z,37.70
2022-08-26T15:56:02.252Z,37.83
2022-08-26T15:58:29.723Z,37.74
2022-08-26T16:00:57.567Z,37.72
2022-08-26T16:03:24.563Z,38.10
2022-08-26T16:05:51.548Z,37.87
2022-08-26T16:08:18.928Z,37.90
2022-08-26T16:10:50.348Z,37.77
2022-08-26T16:13:19.974Z,38.17
2022-08-26T16:15:50.001Z,37.92
2022-08-26T16:18:16.980Z,38.72
2022-08-26T16:20:55.327Z,39.02
2022-08-26T16:23:38.402Z,38.29
2022-08-26T16:26:10.576Z,38.60
2022-08-26T16:28:38.392Z,38.15
2022-08-26T16:31:06.565Z,38.40
2022-08-26T16:33:33.598Z,38.64
2022-08-26T16:36:00.404Z,38.29
2022-08-26T16:38:27.200Z,38.74
2022-08-26T16:40:53.948Z,38.39
2022-08-26T16:43:20.673Z,38.66
2022-08-26T16:45:47.382Z,38.47
2022-08-26T16:48:14.187Z,39.05
2022-08-26T16:50:41.871Z,38.77
2022-08-26T16:53:15.943Z,38.84
2022-08-26T16:55:50.134Z,39.36
2022-08-26T16:58:17.864Z,39.19
2022-08-26T17:00:45.320Z,39.81
2022-08-26T17:03:12.331Z,40.19
2022-08-26T17:05:40.128Z,40.48
2022-08-26T17:08:07.381Z,40.25
2022-08-26T17:10:34.592Z,40.65
2022-08-26T17:13:01.451Z,40.97
2022-08-26T17:15:28.528Z,40.52
2022-08-26T17:17:56.086Z,40.67
2022-08-26T17:20:24.749Z,40.97
2022-08-26T17:22:53.343Z,40.70
2022-08-26T17:25:24.044Z,40.58
2022-08-26T17:27:50.947Z,40.69
2022-08-26T17:30:18.065Z,40.93
2022-08-26T17:32:45.397Z,41.12
2022-08-26T17:35:13.721Z,40.98
2022-08-26T17:37:41.238Z,40.48
2022-08-26T17:40:12.589Z,40.73
2022-08-26T17:42:40.391Z,40.82
2022-08-26T17:45:08.568Z,40.85
2022-08-26T17:47:36.027Z,41.34
2022-08-26T17:50:04.492Z,41.16
2022-08-26T17:52:31.238Z,41.45
2022-08-26T17:54:58.936Z,41.89
2022-08-26T17:57:26.514Z,41.89
2022-08-26T17:59:54.361Z,41.89
2022-08-26T18:02:21.629Z,42.35
2022-08-26T18:04:48.839Z,42.17
2022-08-26T18:07:16.148Z,42.08
2022-08-26T18:09:43.589Z,42.41
2022-08-26T18:12:11.037Z,42.60
2022-08-26T18:14:38.520Z,42.27
2022-08-26T18:17:05.316Z,42.46
2022-08-26T18:19:32.141Z,42.40
2022-08-26T18:21:59.002Z,42.72
2022-08-26T18:24:25.850Z,42.99
2022-08-26T18:26:52.615Z,43.26
2022-08-26T18:29:20.003Z,43.42
2022-08-26T18:31:48.445Z,43.53
2022-08-26T18:34:19.691Z,43.44
2022-08-26T18:36:46.918Z,43.46
2022-08-26T18:39:15.234Z,43.56
2022-08-26T18:41:47.345Z,43.55
2022-08-26T18:44:16.492Z,43.90
2022-08-26T18:46:44.447Z,44.09
2022-08-26T18:49:12.993Z,44.06
2022-08-26T18:51:40.276Z,43.99
2022-08-26T18:54:07.699Z,44.14
2022-08-26T18:56:36.194Z,44.46
2022-08-26T18:59:05.162Z,44.51
2022-08-26T19:01:33.300Z,44.66
2022-08-26T19:04:02.789Z,45.25
2022-08-26T19:06:32.781Z,45.98
2022-08-26T19:09:00.371Z,46.79
2022-08-26T19:11:32.000Z,47.60
2022-08-26T19:14:07.253Z,48.57
2022-08-26T19:16:35.219Z,49.33
2022-08-26T19:19:02.653Z,49.60
2022-08-26T19:21:31.327Z,50.30
2022-08-26T19:23:59.488Z,50.31
2022-08-26T19:26:27.520Z,50.94
2022-08-26T19:28:54.561Z,51.64
2022-08-26T19:31:21.483Z,52.71
2022-08-26T19:33:48.483Z,53.63
2022-08-26T19:36:18.449Z,52.61
2022-08-26T19:38:45.935Z,52.49
2022-08-26T19:41:14.722Z,52.77
2022-08-26T19:43:42.373Z,52.86
2022-08-26T19:46:13.736Z,52.85
2022-08-26T19:48:43.887Z,52.21
2022-08-26T19:51:15.602Z,52.08
2022-08-26T19:53:43.989Z,53.11
2022-08-26T19:56:11.303Z,53.33
2022-08-26T19:58:38.705Z,53.13
2022-08-26T20:01:06.321Z,52.54
2022-08-26T20:03:33.969Z,52.66
2022-08-26T20:06:03.448Z,53.94
2022-08-26T20:08:30.231Z,53.45
2022-08-26T20:11:01.409Z,53.46
2022-08-26T20:13:28.388Z,53.17
2022-08-26T20:15:55.139Z,52.04
2022-08-26T20:18:48.083Z,52.97
2022-08-26T20:21:27.348Z,53.11
2022-08-26T20:24:04.865Z,53.02
2022-08-26T20:26:37.000Z,52.67
2022-08-26T20:29:05.097Z,52.37
2022-08-26T20:31:32.193Z,52.42
2022-08-26T20:33:59.050Z,52.42
2022-08-26T20:36:27.485Z,52.65
2022-08-26T20:38:55.316Z,52.70
2022-08-26T20:41:25.313Z,52.32
2022-08-26T20:43:56.107Z,52.98
2022-08-26T20:46:25.216Z,52.75
2022-08-26T20:48:53.017Z,53.81
2022-08-26T20:51:22.855Z,53.62
2022-08-26T20:53:50.525Z,53.79
2022-08-26T20:56:24.207Z,53.79
2022-08-26T20:58:53.339Z,53.13
2022-08-26T21:01:23.733Z,54.10
2022-08-26T21:03:55.194Z,53.99
2022-08-26T21:06:22.231Z,54.40
2022-08-26T21:08:49.998Z,54.58
2022-08-26T21:11:19.751Z,54.33
2022-08-26T21:14:04.499Z,55.21
2022-08-26T21:16:36.127Z,55.46
2022-08-26T21:19:08.239Z,55.35
2022-08-26T21:21:35.632Z,55.51
2022-08-26T21:24:02.642Z,55.58
2022-08-26T21:26:29.410Z,55.91
2022-08-26T21:28:56.281Z,55.80
2022-08-26T21:31:25.055Z,55.52
2022-08-26T21:33:52.274Z,55.73
2022-08-26T21:36:19.984Z,56.41
2022-08-26T21:38:48.281Z,56.49
2022-08-26T21:41:24.189Z,56.22
2022-08-26T21:43:53.811Z,56.88
2022-08-26T21:46:24.543Z,56.88
2022-08-26T21:48:55.342Z,56.54
2022-08-26T21:51:24.157Z,56.46
2022-08-26T21:53:52.801Z,55.91
2022-08-26T21:56:21.184Z,55.75
2022-08-26T21:58:48.655Z,56.08
2022-08-26T22:01:21.446Z,56.42
2022-08-26T22:03:49.614Z,55.71
2022-08-26T22:06:19.017Z,55.60
2022-08-26T22:08:45.805Z,55.98
2022-08-26T22:11:13.447Z,56.42
2022-08-26T22:13:42.440Z,56.31
2022-08-26T22:16:10.355Z,55.91
2022-08-26T22:18:38.484Z,55.36
2022-08-26T22:21:11.366Z,55.30
2022-08-26T22:23:38.953Z,54.87
2022-08-26T22:26:07.644Z,54.87
2022-08-26T22:28:35.497Z,55.24
2022-08-26T22:31:02.387Z,55.33
2022-08-26T22:33:29.502Z,54.87
2022-08-26T22:35:56.320Z,55.14
2022-08-26T22:38:23.900Z,54.54
2022-08-26T22:40:56.986Z,54.77
2022-08-26T22:43:24.962Z,54.78
2022-08-26T22:45:53.077Z,55.29
2022-08-26T22:48:23.399Z,55.52
2022-08-26T22:50:51.050Z,55.38
2022-08-26T22:53:18.704Z,55.57
2022-08-26T22:55:46.486Z,55.50
2022-08-26T22:58:15.568Z,56.16
2022-08-26T23:00:44.149Z,56.88
2022-08-26T23:03:11.842Z,56.93
2022-08-26T23:05:39.559Z,57.04
2022-08-26T23:08:07.179Z,57.68
2022-08-26T23:10:34.466Z,57.55
2022-08-26T23:13:01.723Z,57.27
2022-08-26T23:15:28.680Z,58.21
2022-08-26T23:17:58.680Z,58.56
2022-08-26T23:20:26.836Z,58.82
2022-08-26T23:22:54.869Z,58.68
2022-08-26T23:25:22.101Z,58.77
2022-08-26T23:27:51.398Z,59.45
2022-08-26T23:30:21.825Z,59.13
2022-08-26T23:32:49.094Z,59.52
2022-08-26T23:35:20.040Z,59.20
2022-08-26T23:37:50.127Z,59.44
2022-08-26T23:40:25.458Z,59.80
2022-08-26T23:42:54.217Z,59.68
2022-08-26T23:45:22.514Z,59.77
2022-08-26T23:47:52.475Z,59.81
2022-08-26T23:50:21.660Z,59.93
2022-08-26T23:53:08.735Z,59.36
2022-08-26T23:55:37.603Z,59.45
2022-08-26T23:58:05.693Z,59.16
